Time;durP1;ratioP1;P1;durP2;ratioP2;P2;SDS_P1;SDS_P2;PMS_P1;PMS_P2;Temp;Humidity;BMP_temperature;BMP_pressure;BME280_temperature;BME280_humidity;BME280_pressure;Samples;Min_cycle;Max_cycle;Signal;HPM_P1;HPM_P2
2022/11/08 00:01:30;;;;;;;4.23;2.27;;;14.20;99.90;;;;;;4936692;29;20476;-86
2022/11/08 00:03:09;;;;;;;3.67;2.60;;;14.20;99.90;;;;;;4939581;29;20998;-85
2022/11/08 00:13:58;;;;;;;3.63;1.90;;;14.40;99.90;;;;;;4938993;29;21062;-86
2022/11/08 00:16:26;;;;;;;4.13;2.07;;;14.50;99.90;;;;;;4953540;28;20590;-86
2022/11/08 00:18:53;;;;;;;6.60;1.80;;;14.50;99.90;;;;;;4936481;28;20532;-85
2022/11/08 00:21:19;;;;;;;3.80;1.87;;;14.50;99.90;;;;;;4940468;28;21059;-85
2022/11/08 00:23:46;;;;;;;8.63;2.23;;;14.50;99.90;;;;;;4952309;28;21275;-87
2022/11/08 00:26:12;;;;;;;3.63;1.87;;;14.50;99.90;;;;;;4939327;29;20496;-86
2022/11/08 00:28:39;;;;;;;4.87;1.90;;;14.30;99.90;;;;;;4938518;29;20463;-85
2022/11/08 00:31:06;;;;;;;5.57;2.03;;;14.50;99.90;;;;;;4936654;29;20530;-84
2022/11/08 00:33:33;;;;;;;6.43;1.77;;;14.50;99.90;;;;;;4939051;29;20456;-87
2022/11/08 00:36:01;;;;;;;8.90;2.57;;;14.60;99.90;;;;;;4945958;29;20897;-87
2022/11/08 00:38:27;;;;;;;2.53;2.27;;;14.70;99.90;;;;;;4943034;28;20911;-87
2022/11/08 00:40:54;;;;;;;4.90;2.20;;;14.70;99.90;;;;;;4943693;28;20476;-86
2022/11/08 00:43:21;;;;;;;4.90;2.23;;;14.80;99.90;;;;;;4936693;29;20567;-85
2022/11/08 00:45:47;;;;;;;4.93;2.40;;;14.90;99.90;;;;;;4940957;29;20563;-85
2022/11/08 00:48:14;;;;;;;2.30;1.97;;;14.90;99.90;;;;;;4941212;28;20479;-85
2022/11/08 00:50:41;;;;;;;3.07;2.33;;;14.90;99.90;;;;;;4947793;28;20456;-84
2022/11/08 00:53:07;;;;;;;5.20;1.80;;;14.90;99.90;;;;;;4957621;29;20460;-85
2022/11/08 00:55:34;;;;;;;1.63;1.53;;;14.90;99.90;;;;;;4918622;28;20468;-84
2022/11/08 00:58:01;;;;;;;4.13;1.90;;;14.90;99.90;;;;;;4978301;28;20483;-86
2022/11/08 01:00:27;;;;;;;4.70;2.33;;;15.00;99.90;;;;;;4961564;28;20441;-86
2022/11/08 01:05:40;;;;;;;2.00;1.77;;;15.10;99.90;;;;;;4942169;29;20502;-84
2022/11/08 01:08:07;;;;;;;4.57;1.70;;;15.10;99.90;;;;;;4941986;29;20505;-85
2022/11/08 01:10:34;;;;;;;5.47;2.33;;;15.10;99.90;;;;;;4959415;28;20459;-87
2022/11/08 01:13:01;;;;;;;4.83;1.87;;;15.10;99.90;;;;;;4951647;28;20452;-84
2022/11/08 01:15:28;;;;;;;2.10;1.70;;;15.20;99.90;;;;;;4942249;29;20536;-84
2022/11/08 01:17:54;;;;;;;2.10;1.57;;;15.20;99.90;;;;;;4926264;29;20461;-85
2022/11/08 01:20:21;;;;;;;2.67;1.90;;;15.20;99.90;;;;;;4962627;29;20456;-85
2022/11/08 01:22:47;;;;;;;11.23;3.83;;;15.20;99.90;;;;;;4964359;28;20496;-84
2022/11/08 01:25:14;;;;;;;5.43;1.50;;;15.10;99.90;;;;;;4962743;28;20472;-84
2022/11/08 01:27:42;;;;;;;2.13;1.90;;;15.10;99.90;;;;;;4963952;28;20471;-86
2022/11/08 01:30:09;;;;;;;3.07;1.50;;;15.10;99.90;;;;;;4949860;28;20465;-86
2022/11/08 01:32:36;;;;;;;4.63;1.63;;;15.10;99.90;;;;;;4941083;29;20528;-86
2022/11/08 01:35:03;;;;;;;1.80;1.30;;;15.10;99.90;;;;;;4946150;29;20483;-86
2022/11/08 01:37:29;;;;;;;3.40;1.70;;;15.10;99.90;;;;;;4943682;29;20545;-86
2022/11/08 01:39:56;;;;;;;5.37;1.97;;;15.10;99.90;;;;;;4941436;29;20533;-85
2022/11/08 01:42:30;;;;;;;5.37;2.17;;;15.00;99.90;;;;;;4942308;29;20525;-86
2022/11/08 01:45:05;;;;;;;3.30;1.63;;;14.90;99.90;;;;;;4944659;29;20480;-84
2022/11/08 01:47:33;;;;;;;2.87;1.57;;;14.90;99.90;;;;;;4942212;29;20460;-84
2022/11/08 01:50:13;;;;;;;4.73;1.73;;;14.80;99.90;;;;;;4945004;29;20475;-84
2022/11/08 01:52:47;;;;;;;2.33;1.47;;;14.80;99.90;;;;;;4943489;28;20494;-84
2022/11/08 01:55:29;;;;;;;2.07;1.70;;;14.70;99.90;;;;;;4957200;29;20503;-85
2022/11/08 01:57:58;;;;;;;2.27;2.03;;;14.70;99.90;;;;;;4953308;28;20447;-83
2022/11/08 02:00:25;;;;;;;2.37;1.80;;;14.60;99.90;;;;;;4959238;28;20483;-85
2022/11/08 02:06:47;;;;;;;5.17;2.40;;;14.50;99.90;;;;;;4895464;29;20506;-86
2022/11/08 02:09:17;;;;;;;5.33;2.10;;;14.60;99.90;;;;;;4927492;29;20451;-85
2022/11/08 02:11:46;;;;;;;4.80;2.60;;;14.60;99.90;;;;;;4940057;28;20989;-86
2022/11/08 02:14:13;;;;;;;2.67;1.80;;;14.40;99.90;;;;;;4939829;29;20465;-84
2022/11/08 02:16:41;;;;;;;8.20;4.20;;;14.40;99.90;;;;;;4938997;29;20523;-85
2022/11/08 02:19:15;;;;;;;5.43;2.43;;;14.30;99.90;;;;;;4941077;29;20516;-85
2022/11/08 02:21:50;;;;;;;2.50;1.77;;;14.20;99.90;;;;;;4940585;28;20527;-85
2022/11/08 02:24:17;;;;;;;5.70;2.07;;;14.20;99.90;;;;;;4922069;29;20441;-84
2022/11/08 02:26:45;;;;;;;4.90;2.50;;;14.10;99.90;;;;;;4938628;29;20468;-85
2022/11/08 02:29:41;;;;;;;3.13;1.90;;;14.00;99.90;;;;;;4938550;29;20511;-84
2022/11/08 02:32:10;;;;;;;5.67;2.30;;;14.00;99.90;;;;;;4925536;29;20479;-85
2022/11/08 02:34:44;;;;;;;2.80;2.00;;;13.90;99.90;;;;;;4935627;29;20524;-84
2022/11/08 02:37:12;;;;;;;3.30;2.47;;;13.90;99.90;;;;;;4920409;29;20544;-83
2022/11/08 02:39:39;;;;;;;5.73;2.50;;;13.90;99.90;;;;;;4937984;29;20526;-84
2022/11/08 02:42:06;;;;;;;2.70;1.93;;;13.80;99.90;;;;;;4917761;29;21289;-84
2022/11/08 02:44:32;;;;;;;4.30;2.10;;;13.80;99.90;;;;;;4921879;29;20488;-85
2022/11/08 02:46:59;;;;;;;5.03;1.87;;;13.70;99.90;;;;;;4938577;29;20493;-84
2022/11/08 02:49:25;;;;;;;2.10;1.90;;;13.70;99.90;;;;;;4936510;29;20500;-85
2022/11/08 02:51:52;;;;;;;2.10;1.90;;;13.70;99.90;;;;;;4937223;28;20520;-86
2022/11/08 02:54:19;;;;;;;7.43;2.40;;;13.90;99.90;;;;;;4921795;29;20499;-85
2022/11/08 02:56:46;;;;;;;4.20;2.30;;;13.70;99.90;;;;;;4935066;29;20467;-86
2022/11/08 02:59:13;;;;;;;4.33;2.20;;;13.70;99.90;;;;;;4918647;29;21265;-86
2022/11/08 03:01:40;;;;;;;3.47;2.57;;;13.70;99.90;;;;;;4921255;29;20578;-86
2022/11/08 03:04:07;;;;;;;2.90;2.00;;;13.70;99.90;;;;;;4936031;29;20459;-84
2022/11/08 03:06:33;;;;;;;3.87;1.73;;;13.60;99.90;;;;;;4920198;29;20504;-84
2022/11/08 03:09:00;;;;;;;4.33;2.17;;;13.60;99.90;;;;;;4921699;29;20967;-86
2022/11/08 03:11:26;;;;;;;2.43;2.23;;;13.60;99.90;;;;;;4922772;29;21082;-84
2022/11/08 03:13:53;;;;;;;4.70;2.73;;;13.50;99.90;;;;;;4934652;29;21014;-85
2022/11/08 03:16:20;;;;;;;4.67;2.27;;;13.50;99.90;;;;;;4935844;28;20542;-84
2022/11/08 03:18:46;;;;;;;8.33;2.47;;;13.40;99.90;;;;;;4919636;29;20456;-86
2022/11/08 03:21:13;;;;;;;3.07;2.33;;;13.50;99.90;;;;;;4920918;29;20515;-84
2022/11/08 03:23:40;;;;;;;4.90;3.00;;;13.40;99.90;;;;;;4934805;29;20550;-87
2022/11/08 03:26:06;;;;;;;5.43;2.43;;;13.30;99.90;;;;;;4922533;29;20529;-85
2022/11/08 03:28:33;;;;;;;4.70;3.20;;;13.40;99.90;;;;;;4932824;29;20530;-86
2022/11/08 03:30:59;;;;;;;6.73;2.40;;;13.40;99.90;;;;;;4935201;28;20487;-86
2022/11/08 03:33:26;;;;;;;6.00;2.83;;;13.40;99.90;;;;;;4933636;29;20500;-86
2022/11/08 03:35:53;;;;;;;4.77;1.90;;;13.40;99.90;;;;;;4940353;29;20997;-86
2022/11/08 03:38:20;;;;;;;6.00;2.33;;;13.20;99.90;;;;;;4935467;29;20559;-86
2022/11/08 03:40:46;;;;;;;3.00;2.37;;;13.30;99.90;;;;;;4935505;28;20491;-86
2022/11/08 03:43:14;;;;;;;4.03;2.50;;;13.30;99.90;;;;;;4935655;29;20479;-84
2022/11/08 03:45:40;;;;;;;2.03;1.83;;;13.30;99.90;;;;;;4916749;29;20531;-87
2022/11/08 03:48:07;;;;;;;3.93;1.93;;;13.40;99.90;;;;;;4935612;29;20473;-85
2022/11/08 03:50:34;;;;;;;3.23;1.80;;;13.30;99.90;;;;;;4917587;29;21025;-86
2022/11/08 03:53:01;;;;;;;3.37;2.13;;;13.20;99.90;;;;;;4920184;29;20477;-86
2022/11/08 03:55:28;;;;;;;5.83;1.90;;;13.20;99.90;;;;;;4917959;29;20487;-84
2022/11/08 03:57:55;;;;;;;4.20;1.70;;;13.30;99.90;;;;;;4940294;29;21059;-84
2022/11/08 04:00:25;;;;;;;4.70;1.93;;;13.20;99.90;;;;;;4919934;29;20497;-85
2022/11/08 04:02:51;;;;;;;3.17;2.10;;;13.20;99.90;;;;;;4938141;28;20480;-85
2022/11/08 04:05:18;;;;;;;2.80;2.20;;;13.20;99.90;;;;;;4948743;28;20519;-84
2022/11/08 04:07:45;;;;;;;3.33;2.40;;;13.10;99.90;;;;;;4938608;29;20468;-85
2022/11/08 04:10:12;;;;;;;3.63;2.27;;;13.20;99.90;;;;;;4935827;29;20463;-86
2022/11/08 04:15:27;;;;;;;2.37;2.10;;;13.00;99.90;;;;;;4939304;29;20877;-85
2022/11/08 04:23:29;;;;;;;3.40;2.40;;;12.90;99.90;;;;;;4953842;28;20530;-85
2022/11/08 04:26:02;;;;;;;4.60;2.70;;;12.90;99.90;;;;;;4930766;29;20984;-85
2022/11/08 04:28:30;;;;;;;3.17;2.80;;;12.80;99.90;;;;;;4939899;29;20534;-85
2022/11/08 04:30:59;;;;;;;3.93;2.60;;;13.00;99.90;;;;;;4926225;28;20491;-85
2022/11/08 04:33:26;;;;;;;3.70;2.80;;;12.80;99.90;;;;;;4941495;29;20478;-85
2022/11/08 04:35:52;;;;;;;4.67;2.80;;;12.80;99.90;;;;;;4928330;29;20574;-87
2022/11/08 04:38:20;;;;;;;7.20;3.20;;;12.80;99.90;;;;;;4925578;29;20538;-87
2022/11/08 04:40:47;;;;;;;3.30;2.60;;;12.60;99.90;;;;;;4943031;29;22304;-85
2022/11/08 04:43:13;;;;;;;4.20;2.90;;;12.80;99.90;;;;;;4938990;29;21861;-87
2022/11/08 04:45:40;;;;;;;3.90;3.17;;;12.70;99.90;;;;;;4941725;29;20498;-85
2022/11/08 04:48:07;;;;;;;3.57;3.00;;;12.70;99.90;;;;;;4929299;29;21161;-87
2022/11/08 04:50:35;;;;;;;5.30;2.97;;;12.60;99.90;;;;;;4924863;29;20459;-86
2022/11/08 04:53:02;;;;;;;3.60;2.80;;;12.60;99.90;;;;;;4938553;28;20542;-87
2022/11/08 04:55:28;;;;;;;6.80;2.80;;;12.60;99.90;;;;;;4946985;29;20554;-87
2022/11/08 04:57:58;;;;;;;5.30;2.80;;;12.50;99.90;;;;;;4926784;29;20487;-86
2022/11/08 05:00:25;;;;;;;3.43;2.70;;;12.70;99.90;;;;;;4924617;29;20566;-85
2022/11/08 05:02:52;;;;;;;4.40;3.10;;;12.70;99.90;;;;;;4925576;29;20492;-85
2022/11/08 05:05:19;;;;;;;5.60;2.80;;;12.70;99.90;;;;;;4940263;29;20476;-85
2022/11/08 05:07:46;;;;;;;3.07;2.77;;;12.70;99.90;;;;;;4941693;29;20462;-84
2022/11/08 05:10:13;;;;;;;5.70;2.73;;;12.60;99.90;;;;;;4942517;29;20561;-86
2022/11/08 05:12:39;;;;;;;2.60;2.40;;;12.80;99.90;;;;;;4926676;29;20490;-85
2022/11/08 05:15:07;;;;;;;10.83;2.97;;;12.80;99.90;;;;;;4942171;29;20550;-85
2022/11/08 05:17:33;;;;;;;6.57;2.77;;;12.70;99.90;;;;;;4954694;29;20456;-86
2022/11/08 05:25:31;;;;;;;4.83;2.70;;;12.30;99.90;;;;;;4939413;29;21037;-86
2022/11/08 05:27:57;;;;;;;5.60;3.10;;;12.30;99.90;;;;;;4923685;29;20468;-87
2022/11/08 05:30:24;;;;;;;4.20;2.50;;;12.40;99.90;;;;;;4924625;29;20472;-87
2022/11/08 05:32:51;;;;;;;7.53;3.03;;;12.50;99.90;;;;;;4904417;28;20480;-85
2022/11/08 05:35:20;;;;;;;7.37;3.17;;;12.40;99.90;;;;;;4938279;29;20486;-86
2022/11/08 05:37:47;;;;;;;7.13;3.63;;;12.40;99.90;;;;;;4924609;29;20544;-86
2022/11/08 05:40:14;;;;;;;6.80;3.90;;;12.60;99.90;;;;;;4924733;29;20461;-86
2022/11/08 05:42:41;;;;;;;11.70;3.40;;;12.50;99.90;;;;;;4939375;28;20477;-86
2022/11/08 05:45:08;;;;;;;3.37;2.83;;;12.70;99.90;;;;;;4923056;29;20465;-87
2022/11/08 05:47:35;;;;;;;3.00;2.63;;;12.50;99.90;;;;;;4939110;29;20508;-86
2022/11/08 05:50:03;;;;;;;4.83;2.43;;;12.50;99.90;;;;;;4941251;29;20488;-87
2022/11/08 05:52:29;;;;;;;3.47;2.37;;;12.60;99.90;;;;;;4942944;28;20534;-86
2022/11/08 05:54:56;;;;;;;2.57;2.37;;;12.60;99.90;;;;;;4924992;29;20551;-85
2022/11/08 05:57:22;;;;;;;3.47;2.50;;;12.50;99.90;;;;;;4939920;29;20664;-86
2022/11/08 05:59:49;;;;;;;14.23;3.47;;;12.40;99.90;;;;;;4940456;28;20487;-85
2022/11/08 06:02:17;;;;;;;12.13;3.70;;;12.40;99.90;;;;;;4939503;28;20483;-86
2022/11/08 06:04:43;;;;;;;5.53;3.57;;;12.40;99.90;;;;;;4921920;29;20475;-86
2022/11/08 06:07:10;;;;;;;6.67;3.87;;;12.30;99.90;;;;;;4923936;29;20500;-83
2022/11/08 06:09:37;;;;;;;8.20;3.77;;;12.50;99.90;;;;;;4935782;29;21028;-85
2022/11/08 06:12:03;;;;;;;5.20;2.97;;;12.40;99.90;;;;;;4920636;29;20471;-85
2022/11/08 06:14:30;;;;;;;7.23;4.97;;;12.40;99.90;;;;;;4941622;29;20547;-85
2022/11/08 06:16:57;;;;;;;9.83;4.00;;;12.40;99.90;;;;;;4926622;29;20486;-84
2022/11/08 06:19:23;;;;;;;14.43;5.03;;;12.40;99.90;;;;;;4940581;29;20491;-84
2022/11/08 06:21:50;;;;;;;13.53;5.30;;;12.40;99.90;;;;;;4940908;28;20475;-85
2022/11/08 06:24:16;;;;;;;6.83;4.60;;;12.30;99.90;;;;;;4947971;29;20460;-85
2022/11/08 06:26:43;;;;;;;7.83;4.83;;;12.30;99.90;;;;;;4942240;29;20478;-85
2022/11/08 06:29:10;;;;;;;10.27;5.77;;;12.40;99.90;;;;;;4944756;29;20488;-85
2022/11/08 06:31:36;;;;;;;7.03;4.80;;;12.30;99.90;;;;;;4945745;28;20570;-86
2022/11/08 06:34:11;;;;;;;5.27;2.97;;;12.30;99.90;;;;;;4942859;28;20521;-85
2022/11/08 06:37:43;;;;;;;4.10;3.03;;;12.30;99.90;;;;;;4946642;28;20501;-86
2022/11/08 06:40:35;;;;;;;7.50;2.60;;;12.30;99.90;;;;;;4934559;29;20458;-86
2022/11/08 06:43:02;;;;;;;4.00;2.43;;;12.50;99.90;;;;;;4931384;29;20570;-85
2022/11/08 06:45:29;;;;;;;3.63;2.40;;;12.50;99.90;;;;;;4939489;28;20467;-85
2022/11/08 06:48:00;;;;;;;4.50;2.50;;;12.50;99.90;;;;;;4939880;29;20503;-83
2022/11/08 06:50:28;;;;;;;6.60;2.10;;;12.40;99.90;;;;;;4950871;29;20469;-85
2022/11/08 06:53:02;;;;;;;2.80;2.13;;;12.30;99.90;;;;;;4947513;28;20479;-85
2022/11/08 06:55:29;;;;;;;2.90;2.57;;;12.40;99.90;;;;;;4937479;29;20502;-85
2022/11/08 06:57:56;;;;;;;3.63;2.13;;;12.40;99.90;;;;;;4939304;29;20459;-84
2022/11/08 07:00:24;;;;;;;2.30;2.10;;;12.60;99.90;;;;;;4937864;29;20461;-84
2022/11/08 07:02:52;;;;;;;3.17;2.50;;;12.50;99.90;;;;;;4939344;29;20492;-85
2022/11/08 07:05:19;;;;;;;2.70;1.80;;;12.40;99.90;;;;;;4926804;29;20452;-84
2022/11/08 07:07:50;;;;;;;5.30;2.60;;;12.50;99.90;;;;;;4939829;29;20514;-83
2022/11/08 07:10:19;;;;;;;3.00;2.03;;;12.60;99.90;;;;;;4925063;29;20463;-85
2022/11/08 07:12:46;;;;;;;2.70;2.50;;;12.70;99.90;;;;;;4938399;29;20973;-84
2022/11/08 07:15:13;;;;;;;3.73;2.00;;;12.60;99.90;;;;;;4939324;29;20508;-84
2022/11/08 07:17:40;;;;;;;4.50;3.50;;;12.60;99.90;;;;;;4922248;29;20505;-84
2022/11/08 07:20:07;;;;;;;2.40;1.97;;;12.50;99.90;;;;;;4940070;29;20464;-85
2022/11/08 07:22:34;;;;;;;5.00;2.40;;;12.70;99.90;;;;;;4921448;29;21014;-85
2022/11/08 07:25:00;;;;;;;3.13;1.87;;;12.80;99.90;;;;;;4920680;29;20452;-84
2022/11/08 07:27:27;;;;;;;2.10;1.83;;;12.80;99.90;;;;;;4923760;29;20531;-84
2022/11/08 07:29:54;;;;;;;5.00;2.50;;;12.70;99.90;;;;;;4938721;29;20907;-85
2022/11/08 07:32:20;;;;;;;6.50;2.10;;;12.60;99.90;;;;;;4920139;29;20471;-84
2022/11/08 07:34:47;;;;;;;4.17;2.40;;;12.50;99.90;;;;;;4920390;29;20476;-85
2022/11/08 07:37:13;;;;;;;2.07;1.80;;;12.60;99.90;;;;;;4937779;29;20571;-85
2022/11/08 07:39:40;;;;;;;4.50;2.00;;;12.70;99.90;;;;;;4924704;29;20951;-85
2022/11/08 07:42:07;;;;;;;3.27;2.00;;;12.60;99.90;;;;;;4922656;29;21475;-86
2022/11/08 07:44:33;;;;;;;3.70;2.17;;;12.70;99.90;;;;;;4922597;29;20457;-85
2022/11/08 07:47:00;;;;;;;4.33;2.00;;;12.80;99.90;;;;;;4937081;29;20888;-85
2022/11/08 07:49:27;;;;;;;1.67;1.50;;;12.90;99.90;;;;;;4941652;29;20528;-85
2022/11/08 07:51:53;;;;;;;3.03;2.10;;;12.90;99.90;;;;;;4940180;28;20479;-85
2022/11/08 07:54:20;;;;;;;2.30;1.60;;;12.90;99.90;;;;;;4924457;29;20456;-85
2022/11/08 07:56:46;;;;;;;3.80;1.87;;;12.90;99.90;;;;;;4924603;29;20570;-85
2022/11/08 07:59:13;;;;;;;2.30;2.10;;;13.10;99.90;;;;;;4921306;29;20463;-85
2022/11/08 08:01:40;;;;;;;3.90;1.77;;;13.10;99.90;;;;;;4925352;29;20555;-85
2022/11/08 08:04:08;;;;;;;4.00;1.83;;;13.10;99.90;;;;;;4939820;29;20471;-86
2022/11/08 08:06:34;;;;;;;2.83;1.70;;;13.20;99.90;;;;;;4938759;29;20471;-88
2022/11/08 08:09:01;;;;;;;1.53;1.40;;;13.20;99.90;;;;;;4940254;29;20479;-87
2022/11/08 08:11:28;;;;;;;1.80;1.53;;;13.20;99.90;;;;;;4940036;28;20483;-85
2022/11/08 08:13:59;;;;;;;2.30;1.67;;;13.20;99.90;;;;;;4936777;29;20470;-85
2022/11/08 08:16:25;;;;;;;2.47;1.60;;;13.30;99.90;;;;;;4936349;29;20554;-86
2022/11/08 08:18:52;;;;;;;2.60;1.43;;;13.30;99.90;;;;;;4921699;29;20983;-86
2022/11/08 08:21:22;;;;;;;1.57;1.20;;;13.40;99.90;;;;;;4923125;29;20572;-84
2022/11/08 08:23:48;;;;;;;1.57;1.47;;;13.40;99.90;;;;;;4953883;28;20472;-84
2022/11/08 08:26:15;;;;;;;3.00;1.80;;;13.50;99.90;;;;;;4923997;29;20487;-86
2022/11/08 08:28:42;;;;;;;1.73;1.57;;;13.60;99.90;;;;;;4936360;29;20452;-85
2022/11/08 08:31:09;;;;;;;8.03;1.60;;;13.60;99.90;;;;;;4937887;29;20487;-87
2022/11/08 08:33:37;;;;;;;4.47;2.00;;;13.60;99.90;;;;;;4927500;29;20472;-87
2022/11/08 08:36:04;;;;;;;2.03;1.20;;;13.70;99.90;;;;;;4940583;29;20546;-84
2022/11/08 08:38:32;;;;;;;1.87;1.67;;;13.70;99.90;;;;;;4926068;29;20467;-87
2022/11/08 08:41:00;;;;;;;2.70;1.57;;;13.70;99.90;;;;;;4926247;28;20511;-85
2022/11/08 08:43:28;;;;;;;1.50;1.40;;;13.80;99.80;;;;;;4937763;29;20458;-86
2022/11/08 08:46:01;;;;;;;3.10;2.07;;;14.00;99.20;;;;;;4942746;29;20492;-86
2022/11/08 08:48:28;;;;;;;4.63;1.63;;;14.00;99.20;;;;;;4938428;29;20539;-84
2022/11/08 08:50:55;;;;;;;4.07;2.30;;;13.70;99.80;;;;;;4928128;28;20551;-85
2022/11/08 08:53:21;;;;;;;1.30;1.20;;;13.80;99.90;;;;;;4938097;29;21029;-84
2022/11/08 08:55:51;;;;;;;3.33;2.00;;;14.10;98.90;;;;;;4937663;29;20457;-85
2022/11/08 08:58:18;;;;;;;5.63;2.00;;;14.20;98.90;;;;;;4939037;29;20452;-86
2022/11/08 09:00:45;;;;;;;4.33;2.13;;;14.10;98.90;;;;;;4940189;29;20510;-85
2022/11/08 09:03:33;;;;;;;3.97;1.73;;;14.20;99.10;;;;;;4941698;29;20560;-87
2022/11/08 09:06:00;;;;;;;2.77;2.03;;;14.30;98.70;;;;;;4942811;29;20511;-85
2022/11/08 09:08:28;;;;;;;3.50;2.30;;;14.40;98.70;;;;;;4958378;28;20509;-85
2022/11/08 09:10:56;;;;;;;3.40;1.83;;;14.50;98.50;;;;;;4949026;28;20474;-85
2022/11/08 09:13:25;;;;;;;2.70;1.80;;;14.50;98.40;;;;;;4949790;28;20465;-84
2022/11/08 09:15:54;;;;;;;4.67;1.97;;;14.70;98.00;;;;;;4950127;29;20511;-85
2022/11/08 09:18:24;;;;;;;1.60;1.23;;;14.70;97.80;;;;;;4932650;29;20584;-85
2022/11/08 09:21:03;;;;;;;3.63;1.60;;;14.50;98.20;;;;;;4928462;28;20490;-84
2022/11/08 09:23:32;;;;;;;1.73;1.60;;;14.70;97.80;;;;;;4925951;29;20548;-85
2022/11/08 09:26:05;;;;;;;2.50;2.07;;;14.80;97.50;;;;;;4926426;29;20467;-86
2022/11/08 09:28:33;;;;;;;1.67;1.50;;;14.70;97.60;;;;;;4928843;29;21003;-86
2022/11/08 09:31:08;;;;;;;2.03;1.60;;;14.80;97.60;;;;;;4924990;29;20518;-87
2022/11/08 09:33:36;;;;;;;1.70;1.60;;;14.90;97.20;;;;;;4926524;29;20975;-86
2022/11/08 09:36:04;;;;;;;2.10;1.23;;;15.00;96.70;;;;;;4939015;28;20995;-84
2022/11/08 09:38:31;;;;;;;2.10;1.83;;;14.80;96.40;;;;;;4939800;28;20469;-85
2022/11/08 09:41:16;;;;;;;3.17;1.60;;;14.70;96.70;;;;;;4942071;28;20464;-86
2022/11/08 09:43:51;;;;;;;2.60;1.60;;;14.80;96.70;;;;;;4957457;28;20504;-86
2022/11/08 09:46:50;;;;;;;1.90;1.37;;;14.80;96.50;;;;;;4946003;29;20464;-85
2022/11/08 09:49:46;;;;;;;1.47;1.20;;;14.70;96.70;;;;;;4962059;28;20488;-86
2022/11/08 09:52:23;;;;;;;2.53;1.30;;;14.60;96.80;;;;;;4960530;28;20484;-84
2022/11/08 09:54:52;;;;;;;3.33;2.00;;;14.50;97.00;;;;;;4950148;29;20470;-84
2022/11/08 09:57:42;;;;;;;1.60;1.20;;;14.60;96.90;;;;;;4963226;29;20486;-85
2022/11/08 10:00:11;;;;;;;2.00;1.57;;;14.60;96.70;;;;;;4963348;28;20491;-84
2022/11/08 10:02:38;;;;;;;2.33;1.67;;;14.50;96.60;;;;;;4946732;28;20476;-85
2022/11/08 10:05:11;;;;;;;1.90;1.40;;;14.40;97.20;;;;;;4964008;28;20493;-86
2022/11/08 10:07:50;;;;;;;2.63;1.40;;;14.50;96.90;;;;;;4962682;28;20468;-86
2022/11/08 10:10:35;;;;;;;1.93;1.57;;;14.50;97.00;;;;;;4960109;28;22806;-85
2022/11/08 10:13:14;;;;;;;1.90;1.40;;;14.60;97.00;;;;;;4948254;28;20500;-85
2022/11/08 10:16:00;;;;;;;2.13;1.50;;;14.60;96.40;;;;;;4927323;29;20464;-84
2022/11/08 10:18:39;;;;;;;1.80;1.70;;;14.70;96.30;;;;;;4940342;29;20574;-84
2022/11/08 10:21:20;;;;;;;2.10;1.50;;;14.90;95.90;;;;;;4928089;29;20492;-84
2022/11/08 10:24:01;;;;;;;2.43;1.20;;;14.90;96.00;;;;;;4945391;29;20468;-84
2022/11/08 10:26:41;;;;;;;1.50;1.40;;;14.90;95.60;;;;;;4943733;29;20459;-86
2022/11/08 10:29:20;;;;;;;1.93;1.80;;;14.70;96.00;;;;;;4940397;28;20526;-84
2022/11/08 10:32:00;;;;;;;2.93;1.60;;;14.60;96.50;;;;;;4922938;29;21018;-86
2022/11/08 10:34:38;;;;;;;2.13;1.67;;;14.80;96.10;;;;;;4941868;28;20469;-86
2022/11/08 10:37:08;;;;;;;1.17;1.07;;;15.00;95.20;;;;;;4941797;29;20488;-86
2022/11/08 10:39:52;;;;;;;2.27;1.70;;;15.00;95.20;;;;;;4940519;29;20880;-85
2022/11/08 10:42:45;;;;;;;1.40;1.30;;;14.90;95.10;;;;;;4927513;29;21426;-84
2022/11/08 10:45:15;;;;;;;1.57;1.47;;;14.90;95.20;;;;;;4920892;29;20474;-85
2022/11/08 10:47:48;;;;;;;1.60;1.10;;;14.80;95.30;;;;;;4940569;28;20468;-84
2022/11/08 10:50:24;;;;;;;3.70;1.60;;;14.90;95.20;;;;;;4928043;29;20530;-83
2022/11/08 10:53:03;;;;;;;1.60;1.50;;;15.00;95.20;;;;;;4942427;28;20494;-85
2022/11/08 10:55:39;;;;;;;1.67;1.50;;;15.20;94.70;;;;;;4931698;29;20472;-85
2022/11/08 10:58:29;;;;;;;3.10;1.40;;;15.30;95.10;;;;;;4930673;29;20507;-84
2022/11/08 11:01:22;;;;;;;2.10;1.60;;;15.30;94.70;;;;;;4936423;28;20490;-83
2022/11/08 11:04:07;;;;;;;3.40;1.43;;;15.30;94.70;;;;;;4947488;29;20456;-83
2022/11/08 11:06:34;;;;;;;2.00;1.60;;;15.30;94.40;;;;;;4953469;28;20513;-84
2022/11/08 11:09:25;;;;;;;4.67;1.67;;;15.40;94.40;;;;;;4931563;29;20473;-84
2022/11/08 11:12:06;;;;;;;3.93;1.67;;;15.40;94.30;;;;;;4944216;29;21413;-86
2022/11/08 11:14:33;;;;;;;1.50;1.40;;;15.50;94.40;;;;;;4946210;29;20977;-84
2022/11/08 11:17:15;;;;;;;1.53;1.30;;;15.40;94.60;;;;;;4931664;29;20499;-86
2022/11/08 11:19:50;;;;;;;6.13;1.93;;;15.10;94.80;;;;;;4933116;29;20543;-86
2022/11/08 11:22:28;;;;;;;2.17;1.57;;;15.40;94.70;;;;;;4945273;29;20506;-85
2022/11/08 11:24:55;;;;;;;1.23;1.13;;;15.50;94.50;;;;;;4943342;28;20459;-85
2022/11/08 11:27:29;;;;;;;2.83;1.67;;;15.50;94.30;;;;;;4925534;29;20459;-85
2022/11/08 11:30:30;;;;;;;5.07;1.50;;;15.60;94.40;;;;;;4941243;29;20545;-86
2022/11/08 11:33:18;;;;;;;1.80;1.33;;;15.60;94.50;;;;;;4938192;29;20529;-85
2022/11/08 11:36:05;;;;;;;2.30;2.07;;;15.70;94.20;;;;;;4944502;29;20460;-84
2022/11/08 11:38:43;;;;;;;1.70;1.60;;;15.70;94.30;;;;;;4940641;29;20978;-84
2022/11/08 11:41:26;;;;;;;1.57;1.43;;;15.80;94.40;;;;;;4942573;28;20494;-85
2022/11/08 11:44:03;;;;;;;2.00;1.90;;;16.10;93.80;;;;;;4928081;29;20801;-86
2022/11/08 11:47:07;;;;;;;2.27;1.97;;;16.10;93.70;;;;;;4941323;28;20460;-84
2022/11/08 11:53:37;;;;;;;1.50;1.40;;;16.10;93.70;;;;;;4907625;29;20505;-86
2022/11/08 11:56:33;;;;;;;1.60;1.37;;;16.00;93.50;;;;;;4921742;29;21187;-85
2022/11/08 11:59:24;;;;;;;2.80;1.50;;;16.10;93.30;;;;;;4943998;28;20487;-86
2022/11/08 12:05:51;;;;;;;1.83;1.47;;;16.20;93.70;;;;;;4938673;29;20520;-85
2022/11/08 12:09:20;;;;;;;;;;;;;;;;;;;;;
2022/11/08 12:12:16;;;;;;;2.43;1.73;;;16.30;93.00;;;;;;4879133;29;20519;-84
2022/11/08 12:15:18;;;;;;;2.73;1.60;;;16.20;93.20;;;;;;4862892;29;20480;-86
2022/11/08 12:18:48;;;;;;;4.97;2.60;;;16.10;93.60;;;;;;4876977;29;20506;-86
2022/11/08 12:27:16;;;;;;;2.90;1.57;;;15.90;94.10;;;;;;4983448;28;20867;-86
2022/11/08 12:31:22;;;;;;;3.20;2.10;;;16.00;94.20;;;;;;4947789;28;20671;-85
2022/11/08 12:34:52;;;;;;;;;;;;;;;;;;;;;
2022/11/08 12:42:02;;;;;;;;;;;;;;;;;;;;;
2022/11/08 12:45:17;;;;;;;3.40;2.20;;;15.80;94.70;;;;;;4964485;28;20429;-85
2022/11/08 12:48:37;;;;;;;4.20;2.07;;;16.20;94.60;;;;;;4958946;28;20521;-87
2022/11/08 12:52:07;;;;;;;3.37;2.17;;;16.10;94.40;;;;;;4920787;28;21136;-85
2022/11/08 12:59:49;;;;;;;1.47;1.33;;;16.70;93.40;;;;;;4887128;29;20511;-87
2022/11/08 13:03:08;;;;;;;;;;;;;;;;;;;;;
2022/11/08 13:06:40;;;;;;;2.00;1.53;;;16.50;93.70;;;;;;4970847;28;20461;-87
2022/11/08 13:09:57;;;;;;;4.13;2.10;;;16.50;93.90;;;;;;4954807;28;20470;-88
2022/11/08 13:15:25;;;;;;;3.73;2.63;;;16.50;94.50;;;;;;4945471;29;20561;-84
2022/11/08 13:22:22;;;;;;;2.27;1.83;;;16.30;94.50;;;;;;4950400;28;20459;-88
2022/11/08 13:25:19;;;;;;;3.90;2.53;;;16.20;94.80;;;;;;4951021;29;20452;-88
2022/11/08 13:32:39;;;;;;;3.00;1.70;;;16.30;94.80;;;;;;4817804;29;20511;-87
2022/11/08 13:36:07;;;;;;;5.73;2.37;;;16.40;94.70;;;;;;4793968;29;20485;-86
2022/11/08 13:43:07;;;;;;;2.57;1.90;;;16.70;94.40;;;;;;4797751;29;20461;-86
2022/11/08 13:46:25;;;;;;;2.10;1.87;;;17.00;93.80;;;;;;4775251;29;20467;-85
2022/11/08 13:49:21;;;;;;;3.03;2.23;;;16.90;93.80;;;;;;4763588;29;20462;-88
2022/11/08 13:52:57;;;;;;;5.20;2.47;;;16.90;93.80;;;;;;4825790;29;20468;-87
2022/11/08 13:56:52;;;;;;;3.80;2.17;;;16.80;93.90;;;;;;4763649;30;20992;-88
2022/11/08 14:04:42;;;;;;;4.03;1.90;;;17.10;93.60;;;;;;4766796;29;20481;-86
2022/11/08 14:08:14;;;;;;;3.00;1.57;;;17.10;93.60;;;;;;4777925;29;21274;-86
2022/11/08 14:12:06;;;;;;;1.53;1.40;;;17.10;93.50;;;;;;4806468;29;20525;-85
2022/11/08 14:15:16;;;;;;;3.27;1.93;;;17.20;93.60;;;;;;4867375;29;20489;-87
2022/11/08 14:18:20;;;;;;;;;;;;;;;;;;;;;
2022/11/08 14:21:55;;;;;;;2.20;1.87;;;17.30;92.70;;;;;;4866561;29;20566;-86
2022/11/08 14:25:24;;;;;;;3.30;2.47;;;17.30;92.90;;;;;;4925701;28;20478;-86
2022/11/08 14:32:56;;;;;;;;;;;;;;;;;;;;;
2022/11/08 14:36:24;;;;;;;2.90;1.50;;;17.70;91.50;;;;;;4891745;29;20477;-88
2022/11/08 14:39:16;;;;;;;4.03;1.80;;;17.60;91.30;;;;;;4904044;29;20503;-86
2022/11/08 14:44:28;;;;;;;2.50;1.87;;;17.70;91.30;;;;;;5046164;23;20513;-87
2022/11/08 14:47:38;;;;;;;1.70;1.43;;;17.70;91.40;;;;;;4949931;28;20479;-87
2022/11/08 14:50:39;;;;;;;4.93;2.03;;;17.70;91.30;;;;;;4962840;28;20458;-85
2022/11/08 14:57:02;;;;;;;4.83;1.90;;;17.50;91.70;;;;;;4951501;29;20475;-87
2022/11/08 15:00:11;;;;;;;2.00;1.60;;;17.60;92.00;;;;;;4951340;29;20827;-86